createdAt,value
2023-02-21T00:00:35.663Z,6.16
2023-02-21T00:03:20.854Z,6.31
2023-02-21T00:06:08.306Z,5.92
2023-02-21T00:08:53.487Z,6.12
2023-02-21T00:11:39.977Z,6.36
2023-02-21T00:14:25.333Z,6.46
2023-02-21T00:17:10.876Z,6.24
2023-02-21T00:19:56.082Z,6.01
2023-02-21T00:22:41.361Z,5.29
2023-02-21T00:25:26.543Z,5.40
2023-02-21T00:28:13.152Z,5.72
2023-02-21T00:30:58.546Z,5.91
2023-02-21T00:33:43.781Z,5.57
2023-02-21T00:36:34.893Z,6.00
2023-02-21T00:39:20.232Z,6.19
2023-02-21T00:42:05.698Z,6.25
2023-02-21T00:44:52.414Z,6.11
2023-02-21T00:47:37.856Z,6.00
2023-02-21T00:50:25.824Z,6.16
2023-02-21T00:53:11.358Z,6.25
2023-02-21T00:55:56.739Z,5.69
2023-02-21T00:58:42.329Z,5.41
2023-02-21T01:01:28.994Z,4.84
2023-02-21T01:04:16.828Z,5.11
2023-02-21T01:07:01.896Z,5.83
2023-02-21T01:09:47.110Z,5.88
2023-02-21T01:12:32.893Z,6.09
2023-02-21T01:15:18.076Z,5.88
2023-02-21T01:18:04.671Z,5.51
2023-02-21T01:20:49.887Z,5.29
2023-02-21T01:23:35.265Z,5.54
2023-02-21T01:26:21.790Z,5.97
2023-02-21T01:29:09.607Z,6.18
2023-02-21T01:31:55.070Z,5.86
2023-02-21T01:34:41.440Z,6.09
2023-02-21T01:37:26.689Z,5.82
2023-02-21T01:40:14.319Z,4.93
2023-02-21T01:43:00.715Z,5.54
2023-02-21T01:46:06.885Z,5.73
2023-02-21T01:48:54.065Z,5.60
2023-02-21T01:51:49.441Z,5.77
2023-02-21T01:54:36.288Z,5.47
2023-02-21T01:57:24.374Z,5.72
2023-02-21T02:00:12.097Z,5.81
2023-02-21T02:03:09.429Z,5.45
2023-02-21T02:05:57.338Z,5.41
2023-02-21T02:08:46.690Z,5.10
2023-02-21T02:11:53.616Z,4.83
2023-02-21T02:14:41.303Z,5.02
2023-02-21T02:17:16.830Z,5.13
2023-02-21T02:20:31.115Z,5.53
2023-02-21T02:23:30.874Z,5.65
2023-02-21T02:26:29.066Z,5.57
2023-02-21T02:29:20.056Z,5.63
2023-02-21T02:32:11.031Z,5.66
2023-02-21T02:34:52.313Z,4.87
2023-02-21T02:37:24.870Z,5.05
2023-02-21T02:40:04.047Z,4.62
2023-02-21T02:42:53.147Z,4.48
2023-02-21T02:45:26.848Z,4.49
2023-02-21T02:47:59.420Z,4.54
2023-02-21T02:50:33.630Z,4.43
2023-02-21T02:53:04.061Z,4.50
2023-02-21T02:55:40.547Z,4.23
2023-02-21T02:58:11.055Z,4.22
2023-02-21T03:00:43.100Z,4.42
2023-02-21T03:03:31.695Z,4.36
2023-02-21T03:06:18.366Z,4.50
2023-02-21T03:08:53.796Z,4.57
2023-02-21T03:11:23.617Z,3.86
2023-02-21T03:13:55.854Z,4.21
2023-02-21T03:16:27.670Z,4.61
2023-02-21T03:19:00.859Z,3.67
2023-02-21T03:21:35.838Z,4.32
2023-02-21T03:24:06.954Z,4.52
2023-02-21T03:26:37.900Z,3.96
2023-02-21T03:29:32.588Z,4.17
2023-02-21T03:32:10.686Z,4.17
2023-02-21T03:34:39.336Z,3.93
2023-02-21T03:37:21.948Z,3.50
2023-02-21T03:39:52.800Z,3.31
2023-02-21T03:42:20.834Z,3.76
2023-02-21T03:44:48.746Z,3.89
2023-02-21T03:47:17.913Z,3.93
2023-02-21T03:49:45.766Z,4.54
2023-02-21T03:52:15.536Z,4.28
2023-02-21T03:54:44.067Z,4.50
2023-02-21T03:57:16.656Z,4.71
2023-02-21T03:59:47.745Z,4.76
2023-02-21T04:02:16.493Z,4.77
2023-02-21T04:04:44.668Z,4.50
2023-02-21T04:07:18.584Z,4.11
2023-02-21T04:09:47.275Z,3.90
2023-02-21T04:12:19.899Z,4.21
2023-02-21T04:14:47.801Z,4.46
2023-02-21T04:17:16.184Z,4.43
2023-02-21T04:19:45.969Z,4.31
2023-02-21T04:22:13.721Z,3.70
2023-02-21T04:24:44.889Z,3.62
2023-02-21T04:27:14.532Z,3.72
2023-02-21T04:29:46.753Z,3.33
2023-02-21T04:32:14.937Z,3.39
2023-02-21T04:34:42.818Z,3.58
2023-02-21T04:37:10.774Z,4.01
2023-02-21T04:39:38.689Z,3.72
2023-02-21T04:42:07.929Z,3.62
2023-02-21T04:44:35.688Z,3.81
2023-02-21T04:47:05.921Z,4.12
2023-02-21T04:49:33.657Z,4.25
2023-02-21T04:52:01.411Z,4.30
2023-02-21T04:54:29.196Z,4.19
2023-02-21T04:56:57.009Z,4.10
2023-02-21T04:59:28.572Z,3.66
2023-02-21T05:01:56.337Z,4.01
2023-02-21T05:04:24.078Z,4.06
2023-02-21T05:06:51.858Z,4.21
2023-02-21T05:09:19.601Z,3.98
2023-02-21T05:11:47.305Z,3.89
2023-02-21T05:14:15.041Z,3.28
2023-02-21T05:16:44.598Z,3.71
2023-02-21T05:19:12.456Z,3.20
2023-02-21T05:21:40.192Z,3.37
2023-02-21T05:24:08.255Z,3.37
2023-02-21T05:26:38.583Z,3.83
2023-02-21T05:29:06.544Z,4.01
2023-02-21T05:31:34.954Z,3.74
2023-02-21T05:34:04.151Z,3.55
2023-02-21T05:36:31.891Z,3.91
2023-02-21T05:38:59.677Z,4.08
2023-02-21T05:41:27.476Z,4.13
2023-02-21T05:43:55.282Z,4.24
2023-02-21T05:46:25.806Z,4.04
2023-02-21T05:48:54.408Z,3.98
2023-02-21T05:51:23.805Z,3.30
2023-02-21T05:53:52.649Z,3.03
2023-02-21T05:56:22.103Z,3.21
2023-02-21T05:58:51.029Z,3.74
2023-02-21T06:01:18.887Z,3.98
2023-02-21T06:03:46.812Z,3.71
2023-02-21T06:06:16.234Z,3.04
2023-02-21T06:08:47.558Z,3.38
2023-02-21T06:11:16.324Z,3.30
2023-02-21T06:13:44.224Z,2.81
2023-02-21T06:16:12.111Z,2.66
2023-02-21T06:18:39.866Z,2.81
2023-02-21T06:21:07.760Z,2.92
2023-02-21T06:23:35.458Z,2.67
2023-02-21T06:26:04.678Z,2.60
2023-02-21T06:28:32.538Z,2.83
2023-02-21T06:31:01.005Z,2.46
2023-02-21T06:33:29.118Z,2.21
2023-02-21T06:35:57.135Z,2.42
2023-02-21T06:38:24.868Z,2.86
2023-02-21T06:40:54.765Z,3.23
2023-02-21T06:43:23.929Z,3.21
2023-02-21T06:45:51.990Z,3.21
2023-02-21T06:48:19.854Z,3.40
2023-02-21T06:50:47.663Z,3.46
2023-02-21T06:53:15.624Z,3.28
2023-02-21T06:55:43.565Z,3.76
2023-02-21T06:58:11.787Z,3.84
2023-02-21T07:00:40.872Z,4.04
2023-02-21T07:03:08.637Z,3.80
2023-02-21T07:05:38.412Z,3.91
2023-02-21T07:08:06.327Z,4.32
2023-02-21T07:10:34.044Z,4.39
2023-02-21T07:13:01.860Z,4.14
2023-02-21T07:15:29.582Z,4.44
2023-02-21T07:17:58.745Z,5.07
2023-02-21T07:20:28.810Z,5.40
2023-02-21T07:22:56.633Z,5.71
2023-02-21T07:25:24.710Z,6.05
2023-02-21T07:27:54.270Z,6.28
2023-02-21T07:30:22.330Z,6.62
2023-02-21T07:32:50.122Z,6.75
2023-02-21T07:35:19.474Z,7.06
2023-02-21T07:37:47.625Z,7.38
2023-02-21T07:40:15.413Z,7.48
2023-02-21T07:42:44.866Z,7.50
2023-02-21T07:45:13.641Z,8.11
2023-02-21T07:47:41.571Z,8.41
2023-02-21T07:50:09.869Z,8.78
2023-02-21T07:52:39.260Z,9.02
2023-02-21T07:55:07.748Z,9.12
2023-02-21T07:57:35.654Z,9.43
2023-02-21T08:00:04.446Z,9.60
2023-02-21T08:02:40.675Z,9.89
2023-02-21T08:05:09.592Z,8.98
2023-02-21T08:07:38.880Z,9.66
2023-02-21T08:10:07.446Z,10.01
2023-02-21T08:12:35.344Z,9.99
2023-02-21T08:15:03.246Z,10.57
2023-02-21T08:17:31.001Z,10.10
2023-02-21T08:20:01.005Z,9.83
2023-02-21T08:22:28.832Z,10.07
2023-02-21T08:24:57.885Z,10.69
2023-02-21T08:27:25.656Z,11.24
2023-02-21T08:29:55.549Z,11.26
2023-02-21T08:32:23.504Z,11.23
2023-02-21T08:34:51.668Z,11.43
2023-02-21T08:37:20.140Z,12.39
2023-02-21T08:39:49.737Z,12.37
2023-02-21T08:42:21.147Z,12.37
2023-02-21T08:44:49.579Z,12.44
2023-02-21T08:47:19.107Z,12.72
2023-02-21T08:49:48.243Z,12.46
2023-02-21T08:52:23.908Z,12.52
2023-02-21T08:54:52.694Z,12.76
2023-02-21T08:57:22.800Z,13.31
2023-02-21T08:59:51.262Z,12.61
2023-02-21T09:02:22.471Z,13.29
2023-02-21T09:04:51.297Z,13.03
2023-02-21T09:07:22.835Z,12.87
2023-02-21T09:09:51.877Z,13.17
2023-02-21T09:12:20.753Z,13.71
2023-02-21T09:14:50.751Z,13.89
2023-02-21T09:17:19.499Z,13.59
2023-02-21T09:19:48.988Z,13.79
2023-02-21T09:22:18.445Z,13.39
2023-02-21T09:24:47.743Z,14.27
2023-02-21T09:27:17.913Z,13.95
2023-02-21T09:29:47.657Z,14.69
2023-02-21T09:32:18.398Z,14.77
2023-02-21T09:34:46.840Z,14.47
2023-02-21T09:37:14.686Z,13.82
2023-02-21T09:39:43.330Z,13.82
2023-02-21T09:42:15.649Z,14.29
2023-02-21T09:44:48.629Z,14.58
2023-02-21T09:47:24.387Z,14.80
2023-02-21T09:49:59.547Z,13.65
2023-02-21T09:52:33.619Z,14.68
2023-02-21T09:55:09.355Z,14.50
2023-02-21T09:57:38.290Z,14.87
2023-02-21T10:00:19.104Z,13.67
2023-02-21T10:03:00.432Z,14.79
2023-02-21T10:05:40.378Z,14.31
2023-02-21T10:08:17.458Z,14.61
2023-02-21T10:10:48.288Z,14.57
2023-02-21T10:13:34.381Z,14.37
2023-02-21T10:16:12.137Z,14.85
2023-02-21T10:18:49.887Z,15.64
2023-02-21T10:21:26.560Z,15.30
2023-02-21T10:23:57.990Z,15.73
2023-02-21T10:26:30.262Z,15.36
2023-02-21T10:28:58.167Z,15.29
2023-02-21T10:31:36.362Z,15.47
2023-02-21T10:34:08.368Z,15.46
2023-02-21T10:36:36.486Z,15.71
2023-02-21T10:39:08.306Z,16.05
2023-02-21T10:41:41.305Z,15.50
2023-02-21T10:44:15.060Z,14.78
2023-02-21T10:46:47.974Z,14.36
2023-02-21T10:49:24.909Z,15.54
2023-02-21T10:52:07.277Z,15.17
2023-02-21T10:54:36.421Z,14.97
2023-02-21T10:57:08.417Z,15.56
2023-02-21T10:59:41.246Z,15.21
2023-02-21T11:02:27.316Z,16.38
2023-02-21T11:05:08.220Z,15.73
2023-02-21T11:07:40.580Z,15.03
2023-02-21T11:10:33.623Z,15.25
2023-02-21T11:13:16.382Z,16.65
2023-02-21T11:15:45.375Z,16.04
2023-02-21T11:18:17.884Z,14.86
2023-02-21T11:20:48.524Z,16.63
2023-02-21T11:23:26.099Z,16.30
2023-02-21T11:26:01.097Z,16.42
2023-02-21T11:28:30.478Z,15.87
2023-02-21T11:31:18.504Z,16.93
2023-02-21T11:33:54.318Z,16.31
2023-02-21T11:36:29.711Z,17.50
2023-02-21T11:39:08.154Z,16.48
2023-02-21T11:41:47.697Z,17.93
2023-02-21T11:44:28.296Z,16.49
2023-02-21T11:47:08.570Z,16.70
2023-02-21T11:49:50.518Z,16.40
2023-02-21T11:52:25.558Z,16.93
2023-02-21T11:54:53.340Z,17.45
2023-02-21T11:57:28.977Z,18.07
2023-02-21T12:00:08.329Z,18.77
2023-02-21T12:02:53.841Z,17.91
2023-02-21T12:05:43.391Z,17.70
2023-02-21T12:08:35.128Z,16.89
2023-02-21T12:11:14.466Z,17.55
2023-02-21T12:13:50.810Z,18.17
2023-02-21T12:16:35.830Z,18.79
2023-02-21T12:19:21.032Z,19.11
2023-02-21T12:22:03.208Z,17.66
2023-02-21T12:24:50.017Z,18.14
2023-02-21T12:27:24.014Z,18.91
2023-02-21T12:30:08.085Z,18.58
2023-02-21T12:32:50.315Z,18.38
2023-02-21T12:35:51.346Z,19.49
2023-02-21T12:38:27.011Z,20.00
2023-02-21T12:41:03.618Z,20.20
2023-02-21T12:43:47.654Z,19.57
2023-02-21T12:46:23.490Z,19.35
2023-02-21T12:48:59.173Z,18.21
2023-02-21T12:51:33.558Z,19.45
2023-02-21T12:54:04.504Z,17.77
2023-02-21T12:56:41.156Z,18.25
2023-02-21T12:59:16.498Z,19.60
2023-02-21T13:01:48.294Z,18.84
2023-02-21T13:04:23.686Z,18.49
2023-02-21T13:06:56.124Z,18.46
2023-02-21T13:09:33.648Z,17.79
2023-02-21T13:12:10.140Z,18.87
2023-02-21T13:14:43.239Z,19.52
2023-02-21T13:17:16.883Z,19.59
2023-02-21T13:19:48.804Z,18.66
2023-02-21T13:23:11.643Z,19.38
2023-02-21T13:26:19.521Z,19.33
2023-02-21T13:28:53.263Z,19.55
2023-02-21T13:31:24.370Z,20.17
2023-02-21T13:33:53.832Z,19.80
2023-02-21T13:36:26.836Z,18.90
2023-02-21T13:39:11.099Z,18.52
2023-02-21T13:41:44.460Z,18.80
2023-02-21T13:44:20.789Z,18.06
2023-02-21T13:47:13.876Z,18.87
2023-02-21T13:49:53.124Z,19.31
2023-02-21T13:52:59.363Z,18.50
2023-02-21T13:55:36.179Z,18.79
2023-02-21T13:58:32.412Z,18.31
2023-02-21T14:01:23.536Z,18.68
2023-02-21T14:03:54.152Z,18.37
2023-02-21T14:06:55.333Z,18.58
2023-02-21T14:09:23.823Z,18.21
2023-02-21T14:11:54.133Z,18.06
2023-02-21T14:14:32.120Z,17.91
2023-02-21T14:17:04.004Z,17.83
2023-02-21T14:19:42.078Z,18.11
2023-02-21T14:22:16.521Z,18.44
2023-02-21T14:24:48.205Z,18.92
2023-02-21T14:27:35.090Z,18.67
2023-02-21T14:30:38.435Z,18.58
2023-02-21T14:33:22.229Z,17.86
2023-02-21T14:35:59.311Z,17.86
2023-02-21T14:38:30.762Z,17.88
2023-02-21T14:41:09.365Z,17.97
2023-02-21T14:43:58.988Z,18.67
2023-02-21T14:47:12.655Z,18.26
2023-02-21T14:50:09.780Z,17.83
2023-02-21T14:52:57.408Z,17.69
2023-02-21T14:55:44.978Z,17.83
2023-02-21T14:58:51.120Z,17.78
2023-02-21T15:01:39.161Z,17.61
2023-02-21T15:04:16.672Z,17.60
2023-02-21T15:07:10.292Z,17.54
2023-02-21T15:09:39.884Z,17.53
2023-02-21T15:12:16.279Z,17.51
2023-02-21T15:14:52.150Z,17.48
2023-02-21T15:17:23.236Z,17.37
2023-02-21T15:20:06.378Z,17.45
2023-02-21T15:22:37.758Z,17.53
2023-02-21T15:25:21.467Z,17.40
2023-02-21T15:28:01.510Z,17.18
2023-02-21T15:30:35.173Z,17.18
2023-02-21T15:33:08.702Z,17.27
2023-02-21T15:35:40.393Z,17.29
2023-02-21T15:38:17.864Z,17.21
2023-02-21T15:40:46.588Z,17.17
2023-02-21T15:43:32.319Z,17.04
2023-02-21T15:46:02.973Z,17.00
2023-02-21T15:48:31.060Z,16.78
2023-02-21T15:51:03.422Z,16.79
2023-02-21T15:53:37.161Z,16.56
2023-02-21T15:56:22.125Z,16.58
2023-02-21T15:59:18.091Z,16.37
2023-02-21T16:01:47.398Z,16.33
2023-02-21T16:04:18.170Z,16.26
2023-02-21T16:06:50.363Z,16.31
2023-02-21T16:09:25.906Z,15.84
2023-02-21T16:11:57.942Z,15.91
2023-02-21T16:14:31.987Z,16.11
2023-02-21T16:17:21.751Z,15.92
2023-02-21T16:19:56.213Z,15.87
2023-02-21T16:22:43.053Z,15.82
2023-02-21T16:25:25.674Z,15.65
2023-02-21T16:28:00.569Z,15.66
2023-02-21T16:30:36.164Z,15.48
2023-02-21T16:33:06.870Z,15.36
2023-02-21T16:35:35.327Z,15.39
2023-02-21T16:38:03.386Z,15.17
2023-02-21T16:40:35.812Z,15.32
2023-02-21T16:43:06.460Z,15.19
2023-02-21T16:45:37.252Z,15.06
2023-02-21T16:48:09.112Z,15.02
2023-02-21T16:50:40.046Z,15.04
2023-02-21T16:53:13.631Z,14.77
2023-02-21T16:55:44.110Z,14.62
2023-02-21T16:58:25.055Z,14.61
2023-02-21T17:00:58.193Z,14.61
2023-02-21T17:03:28.633Z,14.20
2023-02-21T17:05:59.417Z,13.57
2023-02-21T17:08:28.636Z,13.65
2023-02-21T17:11:01.343Z,13.91
2023-02-21T17:13:29.732Z,14.27
2023-02-21T17:15:58.386Z,14.39
2023-02-21T17:18:29.758Z,14.37
2023-02-21T17:20:58.487Z,14.39
2023-02-21T17:23:27.569Z,14.27
2023-02-21T17:25:55.528Z,14.21
2023-02-21T17:28:26.048Z,14.07
2023-02-21T17:30:54.884Z,13.85
2023-02-21T17:33:23.775Z,13.76
2023-02-21T17:35:54.731Z,13.37
2023-02-21T17:38:23.281Z,13.27
2023-02-21T17:40:53.639Z,13.39
2023-02-21T17:43:21.885Z,13.16
2023-02-21T17:45:57.838Z,12.97
2023-02-21T17:48:27.246Z,12.87
2023-02-21T17:50:55.103Z,12.97
2023-02-21T17:53:23.511Z,13.05
2023-02-21T17:55:51.319Z,13.17
2023-02-21T17:58:19.247Z,13.27
2023-02-21T18:00:47.060Z,13.17
2023-02-21T18:03:16.135Z,13.13
2023-02-21T18:05:43.912Z,13.23
2023-02-21T18:08:15.547Z,13.26
2023-02-21T18:10:46.063Z,13.01
2023-02-21T18:13:14.083Z,12.86
2023-02-21T18:15:41.904Z,12.85
2023-02-21T18:18:09.687Z,12.81
2023-02-21T18:20:39.396Z,12.75
2023-02-21T18:23:07.422Z,12.62
2023-02-21T18:25:36.001Z,12.62
2023-02-21T18:28:04.441Z,12.58
2023-02-21T18:30:32.277Z,12.57
2023-02-21T18:33:00.045Z,12.58
2023-02-21T18:35:28.482Z,12.61
2023-02-21T18:37:57.566Z,12.64
2023-02-21T18:41:35.640Z,12.60
2023-02-21T18:44:03.444Z,12.46
2023-02-21T18:46:31.271Z,12.37
2023-02-21T18:48:59.032Z,12.30
2023-02-21T18:51:26.790Z,11.97
2023-02-21T18:53:55.899Z,11.90
2023-02-21T18:56:23.693Z,12.01
2023-02-21T18:58:51.916Z,12.17
2023-02-21T19:01:21.750Z,12.21
2023-02-21T19:03:51.213Z,12.14
2023-02-21T19:06:21.189Z,12.04
2023-02-21T19:08:50.384Z,12.01
2023-02-21T19:11:19.550Z,11.61
2023-02-21T19:13:49.912Z,11.43
2023-02-21T19:16:19.613Z,11.41
2023-02-21T19:18:50.395Z,11.53
2023-02-21T19:21:18.553Z,11.56
2023-02-21T19:23:46.454Z,11.52
2023-02-21T19:26:14.225Z,11.45
2023-02-21T19:28:43.353Z,10.99
2023-02-21T19:31:14.319Z,10.36
2023-02-21T19:33:42.303Z,10.83
2023-02-21T19:36:13.134Z,11.00
2023-02-21T19:38:41.078Z,11.03
2023-02-21T19:41:09.652Z,10.64
2023-02-21T19:43:37.526Z,10.29
2023-02-21T19:46:07.144Z,10.33
2023-02-21T19:48:34.959Z,9.87
2023-02-21T19:51:02.814Z,9.93
2023-02-21T19:53:30.532Z,9.90
2023-02-21T19:55:58.300Z,9.89
2023-02-21T19:58:28.412Z,10.23
2023-02-21T20:00:56.189Z,10.45
2023-02-21T20:03:25.604Z,10.49
2023-02-21T20:05:53.956Z,10.21
2023-02-21T20:08:21.805Z,10.31
2023-02-21T20:10:49.728Z,10.42
2023-02-21T20:13:17.466Z,10.52
2023-02-21T20:15:45.382Z,10.47
2023-02-21T20:18:14.527Z,10.12
2023-02-21T20:20:44.150Z,10.25
2023-02-21T20:23:12.610Z,10.14
2023-02-21T20:25:42.656Z,9.33
2023-02-21T20:28:10.525Z,9.23
2023-02-21T20:30:38.463Z,9.74
2023-02-21T20:33:08.729Z,9.75
2023-02-21T20:35:36.478Z,9.14
2023-02-21T20:38:06.082Z,8.89
2023-02-21T20:40:34.612Z,9.21
2023-02-21T20:43:03.033Z,9.38
2023-02-21T20:45:30.757Z,9.32
2023-02-21T20:47:58.597Z,9.56
2023-02-21T20:50:26.514Z,9.71
2023-02-21T20:52:54.571Z,9.73
2023-02-21T20:55:25.201Z,9.71
2023-02-21T20:57:55.560Z,9.67
2023-02-21T21:00:24.344Z,9.21
2023-02-21T21:02:52.824Z,9.08
2023-02-21T21:05:21.119Z,9.03
2023-02-21T21:07:48.896Z,9.08
2023-02-21T21:10:18.977Z,9.32
2023-02-21T21:12:49.573Z,8.99
2023-02-21T21:15:19.206Z,8.38
2023-02-21T21:17:48.144Z,8.67
2023-02-21T21:20:18.096Z,8.95
2023-02-21T21:22:46.351Z,9.11
2023-02-21T21:25:15.408Z,9.23
2023-02-21T21:27:44.284Z,8.69
2023-02-21T21:30:18.201Z,8.67
2023-02-21T21:32:46.559Z,8.63
2023-02-21T21:35:17.513Z,8.87
2023-02-21T21:37:45.619Z,8.47
2023-02-21T21:40:17.211Z,8.43
2023-02-21T21:42:46.800Z,7.95
2023-02-21T21:45:24.597Z,8.28
2023-02-21T21:47:54.324Z,8.64
2023-02-21T21:50:23.425Z,8.80
2023-02-21T21:52:53.651Z,8.79
2023-02-21T21:55:26.514Z,8.11
2023-02-21T21:57:54.865Z,8.40
2023-02-21T22:00:25.597Z,8.55
2023-02-21T22:02:57.209Z,8.53
2023-02-21T22:05:25.788Z,8.56
2023-02-21T22:07:54.181Z,8.64
2023-02-21T22:10:23.886Z,8.31
2023-02-21T22:12:53.046Z,8.26
2023-02-21T22:15:23.647Z,7.97
2023-02-21T22:17:53.162Z,8.01
2023-02-21T22:20:28.277Z,8.02
2023-02-21T22:22:58.636Z,7.98
2023-02-21T22:25:30.057Z,8.20
2023-02-21T22:27:58.901Z,8.12
2023-02-21T22:30:26.864Z,8.24
2023-02-21T22:32:56.039Z,8.01
2023-02-21T22:35:28.429Z,7.48
2023-02-21T22:37:58.736Z,7.27
2023-02-21T22:40:28.067Z,7.30
2023-02-21T22:42:59.339Z,7.55
2023-02-21T22:45:33.154Z,7.87
2023-02-21T22:48:03.988Z,7.97
2023-02-21T22:50:36.833Z,7.92
2023-02-21T22:53:07.876Z,7.78
2023-02-21T22:55:37.957Z,7.82
2023-02-21T22:58:07.558Z,7.96
2023-02-21T23:00:36.655Z,7.72
2023-02-21T23:03:12.724Z,7.86
2023-02-21T23:05:41.269Z,7.73
2023-02-21T23:08:09.106Z,7.85
2023-02-21T23:10:40.204Z,7.50
2023-02-21T23:13:14.177Z,7.73
2023-02-21T23:15:42.867Z,7.74
2023-02-21T23:18:18.034Z,7.31
2023-02-21T23:20:48.436Z,7.23
2023-02-21T23:23:16.386Z,7.35
2023-02-21T23:25:44.372Z,7.55
2023-02-21T23:28:14.839Z,7.68
2023-02-21T23:30:43.308Z,7.74
2023-02-21T23:33:15.023Z,7.66
2023-02-21T23:35:43.380Z,7.70
2023-02-21T23:38:15.608Z,7.73
2023-02-21T23:40:44.658Z,7.80
2023-02-21T23:43:14.078Z,7.66
2023-02-21T23:45:42.153Z,6.97
2023-02-21T23:48:15.676Z,6.91
2023-02-21T23:50:46.404Z,7.00
2023-02-21T23:53:16.079Z,6.90
2023-02-21T23:55:46.399Z,6.78
2023-02-21T23:58:17.545Z,6.86
